Bei Facebook empfehlenBei Twitter postenGoogle plusPinterest

Das Wetter im Erzgebirge am 29.06.2015

Wetter und Klima am 29.06.2015 Holzhau im Erzgebirge (630m ü.NN)
Letzte gemessene Temperatur und Uhrzeit der Messung23:45:00 Uhr12.90 °C
Temperatur (Maximum / Höchstwert) und Uhrzeit der Messung16:30:00 Uhr25.70 °C
Temperatur (Minimum / Tiefstwert) und Uhrzeit der Messung01:15:008.80 °C
Errechneter Absolutwert der Temperaturschwankungen zwischen Tmin und Tmax des Tages16.90 K
Errechnete Tagesmitteltemperatur16.59167 °C
Gesamt - Niederschlag des Tages (in flüssiger Form)0.00 Liter / m²
Luftdruck (Maximum / Höchstwert) und Zeitpunkt der Messung10:45:00 Uhr1020.50 hPa
Luftdruck (Minimum / Tiefstwert) und Zeitpunkt der Messung17:30:00 Uhr1019.00 hPa
Errechneter Absolutwert der Luftdruckschwankungen des Tages1.50 hPa
Höchste gemessene Windgeschwindigkeit und Uhrzeit der Messung18:45:00 Uhr6.48 km/h
Errechnete Windhäufigkeit in Relation zu den Messwerten des Tages5.20833 %
Niedrigste Windkühle (Windchill) und Zeitpunkt der Messung01:15:00 Uhr8.80 °C
Taupunkt (Maximum / Höchstwert) und Uhrzeit der Messung09:45:00 Uhr14.10 °C
Taupunkt (Minimum / Tiefstwert) und Uhrzeit der Messung01:00:006.30 °C
Anzahl der automatisch eingelesenen Messwerte 96

Detaillierte Wetter- und Klima- Messwerte für den 29.06.2015 in Holzhau im Erzgebirge (630m ü.NN)
ZeitTemperaturLuftdruckRel. LuftfeuchteWindWindrichtungWindchillTaupunktNiederschlag l/m²
23:45:0012.90 °C1020.40 hPa81.00 %9.70 °C 
23:30:0013.20 °C1020.20 hPa81.00 %10.00 °C 
23:15:0013.40 °C1020.40 hPa80.00 %10.00 °C 
23:00:0013.60 °C1020.40 hPa79.00 %10.00 °C 
22:45:0013.90 °C1020.30 hPa78.00 %10.10 °C 
22:30:0014.30 °C1020.20 hPa77.00 %10.30 °C 
22:15:0014.50 °C1020.10 hPa76.00 %10.30 °C 
22:00:0014.80 °C1020.10 hPa75.00 %10.40 °C 
21:45:0015.10 °C1020.10 hPa73.00 %10.30 °C 
21:30:0015.90 °C1020.00 hPa70.00 %10.40 °C 
21:15:0016.90 °C1019.90 hPa68.00 %11.00 °C 
21:00:0017.90 °C1019.70 hPa65.00 %11.20 °C 
20:45:0018.80 °C1019.70 hPa62.00 %11.40 °C 
20:30:0019.80 °C1019.40 hPa59.00 %11.60 °C 
20:15:0020.90 °C1019.50 hPa55.00 %11.50 °C 
20:00:0022.10 °C1019.40 hPa52.00 %11.80 °C 
19:45:0022.60 °C1019.30 hPa50.00 %11.70 °C 
19:30:0022.40 °C1019.30 hPa50.00 %11.50 °C 
19:15:0022.20 °C1019.20 hPa49.00 %11.00 °C 
19:00:0022.50 °C1019.20 hPa49.00 %11.30 °C 
18:45:0023.30 °C1019.20 hPa47.00 %6.48 km/hWNW24.70 °C11.40 °C 
18:30:0024.30 °C1019.10 hPa46.00 %11.90 °C 
18:15:0024.80 °C1019.10 hPa46.00 %12.40 °C 
18:00:0024.50 °C1019.30 hPa46.00 %12.10 °C 
17:45:0024.60 °C1019.20 hPa45.00 %11.90 °C 
17:30:0024.80 °C1019.00 hPa45.00 %12.10 °C 
17:15:0025.30 °C1019.00 hPa45.00 %3.60 km/hWNW25.30 °C12.50 °C 
17:00:0025.30 °C1019.10 hPa46.00 %12.90 °C 
16:45:0025.60 °C1019.10 hPa44.00 %12.40 °C 
16:30:0025.70 °C1019.30 hPa46.00 %13.20 °C 
16:15:0025.50 °C1019.50 hPa48.00 %13.70 °C 
16:00:0025.00 °C1019.40 hPa46.00 %12.60 °C 
15:45:0025.00 °C1019.40 hPa47.00 %12.90 °C 
15:30:0024.50 °C1019.40 hPa48.00 %12.80 °C 
15:15:0024.90 °C1019.40 hPa50.00 %3.24 km/hSW24.90 °C13.80 °C 
15:00:0023.90 °C1019.50 hPa51.00 %13.20 °C 
14:45:0024.30 °C1019.60 hPa50.00 %5.40 km/hNW25.90 °C13.20 °C 
14:30:0023.90 °C1019.60 hPa51.00 %13.20 °C 
14:15:0023.50 °C1019.70 hPa52.00 %13.10 °C 
14:00:0022.80 °C1019.70 hPa53.00 %12.70 °C 
13:45:0022.60 °C1019.70 hPa54.00 %12.80 °C 
13:30:0022.20 °C1019.60 hPa55.00 %12.70 °C 
13:15:0021.60 °C1019.70 hPa58.00 %13.00 °C 
13:00:0020.80 °C1020.10 hPa61.00 %13.00 °C 
12:45:0020.30 °C1020.00 hPa61.00 %12.50 °C 
12:30:0020.30 °C1020.30 hPa62.00 %12.80 °C 
12:15:0019.30 °C1020.20 hPa65.00 %12.60 °C 
12:00:0018.40 °C1020.30 hPa65.00 %11.70 °C 
11:45:0018.40 °C1020.30 hPa63.00 %4.32 km/hWNW18.40 °C11.20 °C 
11:30:0019.40 °C1020.30 hPa61.00 %11.70 °C 
11:15:0020.30 °C1020.30 hPa63.00 %13.00 °C 
11:00:0019.50 °C1020.30 hPa67.00 %13.20 °C 
10:45:0018.90 °C1020.50 hPa64.00 %11.90 °C 
10:30:0019.50 °C1020.40 hPa64.00 %12.50 °C 
10:15:0018.90 °C1020.50 hPa66.00 %12.40 °C 
10:00:0018.90 °C1020.30 hPa66.00 %12.40 °C 
09:45:0018.40 °C1020.40 hPa76.00 %14.10 °C 
09:30:0016.20 °C1020.30 hPa84.00 %13.50 °C 
09:15:0015.20 °C1020.50 hPa84.00 %12.50 °C 
09:00:0014.90 °C1020.40 hPa84.00 %12.20 °C 
08:45:0014.50 °C1020.10 hPa84.00 %11.80 °C 
08:30:0014.20 °C1020.10 hPa84.00 %11.50 °C 
08:15:0013.80 °C1019.80 hPa84.00 %11.10 °C 
08:00:0013.50 °C1020.00 hPa83.00 %10.70 °C 
07:45:0013.40 °C1020.00 hPa84.00 %10.80 °C 
07:30:0012.80 °C1019.70 hPa86.00 %10.50 °C 
07:15:0011.90 °C1020.10 hPa87.00 %9.80 °C 
07:00:0011.30 °C1020.20 hPa88.00 %9.40 °C 
06:45:0010.80 °C1020.30 hPa88.00 %8.90 °C 
06:30:0010.20 °C1020.50 hPa88.00 %8.30 °C 
06:15:009.90 °C1020.40 hPa88.00 %8.00 °C 
06:00:009.90 °C1020.30 hPa88.00 %8.00 °C 
05:45:009.60 °C1020.30 hPa87.00 %7.50 °C 
05:30:009.60 °C1020.10 hPa86.00 %7.40 °C 
05:15:009.80 °C1020.30 hPa86.00 %7.60 °C 
05:00:009.90 °C1020.40 hPa86.00 %7.70 °C 
04:45:009.80 °C1020.10 hPa86.00 %7.60 °C 
04:30:009.60 °C1019.90 hPa86.00 %7.40 °C 
04:15:009.50 °C1020.30 hPa86.00 %7.30 °C 
04:00:009.50 °C1020.20 hPa86.00 %7.30 °C 
03:45:009.40 °C1020.20 hPa86.00 %7.20 °C 
03:30:009.50 °C1020.30 hPa85.00 %7.10 °C 
03:15:009.50 °C1020.40 hPa85.00 %7.10 °C 
03:00:009.40 °C1020.20 hPa85.00 %7.00 °C 
02:45:009.30 °C1020.00 hPa85.00 %6.90 °C 
02:30:009.10 °C1020.00 hPa85.00 %6.70 °C 
02:15:009.10 °C1020.10 hPa85.00 %6.70 °C 
02:00:009.10 °C1020.20 hPa85.00 %6.70 °C 
01:45:009.10 °C1020.20 hPa85.00 %6.70 °C 
01:30:008.90 °C1020.10 hPa85.00 %6.50 °C 
01:15:008.80 °C1020.10 hPa85.00 %6.40 °C 
01:00:008.90 °C1020.30 hPa84.00 %6.30 °C 
00:45:008.90 °C1020.30 hPa84.00 %6.30 °C 
00:30:008.90 °C1020.30 hPa84.00 %6.30 °C 
00:15:009.10 °C1020.40 hPa84.00 %6.50 °C 
00:00:009.10 °C1020.50 hPa84.00 %6.50 °C 

Permanenter Link zu dieser Seite: Wetter im Erzgebirge am 29.06.2015
Performance-Info: Die Erstellung der Seite / Statistik(en) / Tabelle(n) erforderte 5 Datenbankserver-Abfrage(n) und dauerte 102 Millisekunden. (Dieser Messwert ist von der Gesamt-Auslastung des Servers abhängig.)
Erzgebirge - Wetter | Erzgebirge - Wetter (Mobilgeräte) | Komplette Klimadatenbank